sensor_id;sensor_type;location;lat;lon;timestamp;P1;durP1;ratioP1;P2;durP2;ratioP2
31798;SDS011;18374;51.136;3.502;2022-07-29T00:02:29;3.55;;;2.15;;
31798;SDS011;18374;51.136;3.502;2022-07-29T00:05:05;9.82;;;1.90;;
31798;SDS011;18374;51.136;3.502;2022-07-29T00:07:45;6.15;;;1.85;;
31798;SDS011;18374;51.136;3.502;2022-07-29T00:10:18;5.28;;;2.05;;
31798;SDS011;18374;51.136;3.502;2022-07-29T00:12:46;3.80;;;1.98;;
31798;SDS011;18374;51.136;3.502;2022-07-29T00:15:27;4.90;;;1.70;;
31798;SDS011;18374;51.136;3.502;2022-07-29T00:18:17;5.60;;;2.25;;
31798;SDS011;18374;51.136;3.502;2022-07-29T00:20:50;4.82;;;2.00;;
31798;SDS011;18374;51.136;3.502;2022-07-29T00:23:18;4.07;;;2.00;;
31798;SDS011;18374;51.136;3.502;2022-07-29T00:25:51;3.08;;;2.20;;
31798;SDS011;18374;51.136;3.502;2022-07-29T00:28:35;6.70;;;2.00;;
31798;SDS011;18374;51.136;3.502;2022-07-29T00:31:05;7.07;;;2.42;;
31798;SDS011;18374;51.136;3.502;2022-07-29T00:33:36;7.30;;;2.38;;
31798;SDS011;18374;51.136;3.502;2022-07-29T00:36:06;7.60;;;2.42;;
31798;SDS011;18374;51.136;3.502;2022-07-29T00:38:47;4.15;;;2.00;;
31798;SDS011;18374;51.136;3.502;2022-07-29T00:41:19;4.35;;;2.75;;
31798;SDS011;18374;51.136;3.502;2022-07-29T00:43:51;4.57;;;2.28;;
31798;SDS011;18374;51.136;3.502;2022-07-29T00:46:29;5.32;;;2.13;;
31798;SDS011;18374;51.136;3.502;2022-07-29T00:48:57;3.72;;;2.35;;
31798;SDS011;18374;51.136;3.502;2022-07-29T00:51:25;4.03;;;2.47;;
31798;SDS011;18374;51.136;3.502;2022-07-29T00:53:54;5.28;;;2.30;;
31798;SDS011;18374;51.136;3.502;2022-07-29T00:56:24;4.05;;;2.03;;
31798;SDS011;18374;51.136;3.502;2022-07-29T00:58:55;5.60;;;1.95;;
31798;SDS011;18374;51.136;3.502;2022-07-29T01:01:28;5.75;;;2.60;;
31798;SDS011;18374;51.136;3.502;2022-07-29T01:03:56;4.38;;;2.38;;
31798;SDS011;18374;51.136;3.502;2022-07-29T01:06:26;3.10;;;1.90;;
31798;SDS011;18374;51.136;3.502;2022-07-29T01:08:54;3.60;;;1.98;;
31798;SDS011;18374;51.136;3.502;2022-07-29T01:11:22;6.15;;;2.30;;
31798;SDS011;18374;51.136;3.502;2022-07-29T01:13:52;3.28;;;2.10;;
31798;SDS011;18374;51.136;3.502;2022-07-29T01:16:27;4.07;;;1.85;;
31798;SDS011;18374;51.136;3.502;2022-07-29T01:25:04;2.08;;;1.77;;
31798;SDS011;18374;51.136;3.502;2022-07-29T01:28:01;4.53;;;2.05;;
31798;SDS011;18374;51.136;3.502;2022-07-29T01:30:51;1.98;;;1.75;;
31798;SDS011;18374;51.136;3.502;2022-07-29T01:33:20;6.20;;;2.10;;
31798;SDS011;18374;51.136;3.502;2022-07-29T01:36:11;5.50;;;2.25;;
31798;SDS011;18374;51.136;3.502;2022-07-29T01:39:14;1.90;;;1.50;;
31798;SDS011;18374;51.136;3.502;2022-07-29T01:41:58;2.63;;;1.73;;
31798;SDS011;18374;51.136;3.502;2022-07-29T01:44:48;6.85;;;2.17;;
31798;SDS011;18374;51.136;3.502;2022-07-29T01:47:34;3.67;;;1.83;;
31798;SDS011;18374;51.136;3.502;2022-07-29T01:50:10;3.08;;;1.88;;
31798;SDS011;18374;51.136;3.502;2022-07-29T01:52:45;4.32;;;1.63;;
31798;SDS011;18374;51.136;3.502;2022-07-29T01:55:29;3.63;;;1.80;;
31798;SDS011;18374;51.136;3.502;2022-07-29T01:58:04;3.95;;;1.83;;
31798;SDS011;18374;51.136;3.502;2022-07-29T02:00:38;4.72;;;2.10;;
31798;SDS011;18374;51.136;3.502;2022-07-29T02:03:16;3.00;;;1.43;;
31798;SDS011;18374;51.136;3.502;2022-07-29T02:05:50;4.43;;;1.85;;
31798;SDS011;18374;51.136;3.502;2022-07-29T02:08:29;4.07;;;2.17;;
31798;SDS011;18374;51.136;3.502;2022-07-29T02:11:01;2.43;;;1.57;;
31798;SDS011;18374;51.136;3.502;2022-07-29T02:13:31;2.40;;;1.80;;
31798;SDS011;18374;51.136;3.502;2022-07-29T02:16:05;2.60;;;1.70;;
31798;SDS011;18374;51.136;3.502;2022-07-29T02:18:37;3.13;;;2.00;;
31798;SDS011;18374;51.136;3.502;2022-07-29T02:21:10;5.65;;;1.70;;
31798;SDS011;18374;51.136;3.502;2022-07-29T02:23:41;2.33;;;1.92;;
31798;SDS011;18374;51.136;3.502;2022-07-29T02:26:20;4.13;;;1.75;;
31798;SDS011;18374;51.136;3.502;2022-07-29T02:28:56;5.95;;;2.33;;
31798;SDS011;18374;51.136;3.502;2022-07-29T02:31:26;3.97;;;1.80;;
31798;SDS011;18374;51.136;3.502;2022-07-29T02:34:01;2.75;;;1.92;;
31798;SDS011;18374;51.136;3.502;2022-07-29T02:36:31;3.30;;;2.08;;
31798;SDS011;18374;51.136;3.502;2022-07-29T02:39:01;3.25;;;1.65;;
31798;SDS011;18374;51.136;3.502;2022-07-29T02:41:41;3.86;;;1.90;;
31798;SDS011;18374;51.136;3.502;2022-07-29T02:44:16;4.37;;;1.90;;
31798;SDS011;18374;51.136;3.502;2022-07-29T02:46:54;6.35;;;2.05;;
31798;SDS011;18374;51.136;3.502;2022-07-29T02:49:48;2.08;;;1.55;;
31798;SDS011;18374;51.136;3.502;2022-07-29T02:52:28;3.20;;;1.77;;
31798;SDS011;18374;51.136;3.502;2022-07-29T02:55:16;3.45;;;2.03;;
31798;SDS011;18374;51.136;3.502;2022-07-29T02:58:13;6.00;;;1.80;;
31798;SDS011;18374;51.136;3.502;2022-07-29T03:00:59;4.20;;;1.77;;
31798;SDS011;18374;51.136;3.502;2022-07-29T03:03:36;4.88;;;1.92;;
31798;SDS011;18374;51.136;3.502;2022-07-29T03:06:05;3.00;;;1.90;;
31798;SDS011;18374;51.136;3.502;2022-07-29T03:08:55;2.58;;;1.88;;
31798;SDS011;18374;51.136;3.502;2022-07-29T03:11:26;7.35;;;2.45;;
31798;SDS011;18374;51.136;3.502;2022-07-29T03:14:13;2.97;;;1.98;;
31798;SDS011;18374;51.136;3.502;2022-07-29T03:16:42;3.67;;;1.60;;
31798;SDS011;18374;51.136;3.502;2022-07-29T03:19:13;4.65;;;2.00;;
31798;SDS011;18374;51.136;3.502;2022-07-29T03:21:44;5.60;;;2.10;;
31798;SDS011;18374;51.136;3.502;2022-07-29T03:24:25;8.13;;;2.65;;
31798;SDS011;18374;51.136;3.502;2022-07-29T03:27:02;2.95;;;2.17;;
31798;SDS011;18374;51.136;3.502;2022-07-29T03:29:32;6.10;;;2.28;;
31798;SDS011;18374;51.136;3.502;2022-07-29T03:32:01;3.95;;;2.30;;
31798;SDS011;18374;51.136;3.502;2022-07-29T03:34:35;3.92;;;2.08;;
31798;SDS011;18374;51.136;3.502;2022-07-29T03:37:04;3.17;;;2.22;;
31798;SDS011;18374;51.136;3.502;2022-07-29T03:39:34;2.90;;;2.17;;
31798;SDS011;18374;51.136;3.502;2022-07-29T03:42:08;6.60;;;2.50;;
31798;SDS011;18374;51.136;3.502;2022-07-29T03:44:43;3.00;;;2.70;;
31798;SDS011;18374;51.136;3.502;2022-07-29T03:47:14;4.72;;;2.33;;
31798;SDS011;18374;51.136;3.502;2022-07-29T03:49:50;4.10;;;2.30;;
31798;SDS011;18374;51.136;3.502;2022-07-29T03:52:21;3.55;;;2.30;;
31798;SDS011;18374;51.136;3.502;2022-07-29T03:54:49;4.38;;;2.42;;
31798;SDS011;18374;51.136;3.502;2022-07-29T03:57:17;3.03;;;2.50;;
31798;SDS011;18374;51.136;3.502;2022-07-29T03:59:48;2.67;;;2.42;;
31798;SDS011;18374;51.136;3.502;2022-07-29T04:02:18;5.28;;;3.00;;
31798;SDS011;18374;51.136;3.502;2022-07-29T04:05:11;5.72;;;2.35;;
31798;SDS011;18374;51.136;3.502;2022-07-29T04:07:44;5.47;;;2.90;;
31798;SDS011;18374;51.136;3.502;2022-07-29T04:10:16;3.55;;;2.92;;
31798;SDS011;18374;51.136;3.502;2022-07-29T04:12:58;3.03;;;2.65;;
31798;SDS011;18374;51.136;3.502;2022-07-29T04:15:26;4.72;;;3.00;;
31798;SDS011;18374;51.136;3.502;2022-07-29T04:17:58;6.30;;;2.95;;
31798;SDS011;18374;51.136;3.502;2022-07-29T04:20:26;5.50;;;3.20;;
31798;SDS011;18374;51.136;3.502;2022-07-29T04:22:54;4.57;;;3.22;;
31798;SDS011;18374;51.136;3.502;2022-07-29T04:25:22;4.20;;;3.10;;
31798;SDS011;18374;51.136;3.502;2022-07-29T04:27:50;4.03;;;2.72;;
31798;SDS011;18374;51.136;3.502;2022-07-29T04:30:27;5.22;;;3.15;;
31798;SDS011;18374;51.136;3.502;2022-07-29T04:32:55;8.88;;;3.55;;
31798;SDS011;18374;51.136;3.502;2022-07-29T04:35:23;7.53;;;3.20;;
31798;SDS011;18374;51.136;3.502;2022-07-29T04:37:51;6.30;;;3.03;;
31798;SDS011;18374;51.136;3.502;2022-07-29T04:40:19;4.80;;;3.38;;
31798;SDS011;18374;51.136;3.502;2022-07-29T04:42:47;4.03;;;2.67;;
31798;SDS011;18374;51.136;3.502;2022-07-29T04:45:15;4.38;;;3.10;;
31798;SDS011;18374;51.136;3.502;2022-07-29T04:47:48;5.32;;;2.78;;
31798;SDS011;18374;51.136;3.502;2022-07-29T04:50:16;8.40;;;3.33;;
31798;SDS011;18374;51.136;3.502;2022-07-29T04:52:44;5.20;;;2.78;;
31798;SDS011;18374;51.136;3.502;2022-07-29T04:55:12;4.75;;;3.03;;
31798;SDS011;18374;51.136;3.502;2022-07-29T04:57:40;4.05;;;3.10;;
31798;SDS011;18374;51.136;3.502;2022-07-29T05:00:08;3.38;;;2.83;;
31798;SDS011;18374;51.136;3.502;2022-07-29T05:02:36;3.75;;;3.05;;
31798;SDS011;18374;51.136;3.502;2022-07-29T05:05:04;3.05;;;2.75;;
31798;SDS011;18374;51.136;3.502;2022-07-29T05:07:32;5.43;;;3.15;;
31798;SDS011;18374;51.136;3.502;2022-07-29T05:10:00;4.78;;;3.30;;
31798;SDS011;18374;51.136;3.502;2022-07-29T05:12:27;4.07;;;2.83;;
31798;SDS011;18374;51.136;3.502;2022-07-29T05:14:55;4.45;;;3.22;;
31798;SDS011;18374;51.136;3.502;2022-07-29T05:17:23;3.50;;;3.20;;
31798;SDS011;18374;51.136;3.502;2022-07-29T05:19:51;6.93;;;3.17;;
31798;SDS011;18374;51.136;3.502;2022-07-29T05:22:19;4.32;;;3.17;;
31798;SDS011;18374;51.136;3.502;2022-07-29T05:24:47;4.72;;;3.28;;
31798;SDS011;18374;51.136;3.502;2022-07-29T05:27:15;3.20;;;2.90;;
31798;SDS011;18374;51.136;3.502;2022-07-29T05:29:43;3.97;;;3.10;;
31798;SDS011;18374;51.136;3.502;2022-07-29T05:32:12;7.05;;;3.55;;
31798;SDS011;18374;51.136;3.502;2022-07-29T05:34:40;3.75;;;2.72;;
31798;SDS011;18374;51.136;3.502;2022-07-29T05:37:18;7.32;;;3.28;;
31798;SDS011;18374;51.136;3.502;2022-07-29T05:39:46;7.68;;;3.50;;
31798;SDS011;18374;51.136;3.502;2022-07-29T05:42:23;5.57;;;3.30;;
31798;SDS011;18374;51.136;3.502;2022-07-29T05:44:52;5.88;;;3.90;;
31798;SDS011;18374;51.136;3.502;2022-07-29T05:47:20;5.15;;;3.72;;
31798;SDS011;18374;51.136;3.502;2022-07-29T05:49:48;5.13;;;3.50;;
31798;SDS011;18374;51.136;3.502;2022-07-29T05:52:17;8.05;;;3.50;;
31798;SDS011;18374;51.136;3.502;2022-07-29T05:54:45;8.35;;;3.55;;
31798;SDS011;18374;51.136;3.502;2022-07-29T05:57:16;6.25;;;3.53;;
31798;SDS011;18374;51.136;3.502;2022-07-29T05:59:48;8.82;;;4.15;;
31798;SDS011;18374;51.136;3.502;2022-07-29T06:02:17;4.97;;;3.30;;
31798;SDS011;18374;51.136;3.502;2022-07-29T06:04:45;7.68;;;3.58;;
31798;SDS011;18374;51.136;3.502;2022-07-29T06:07:13;6.28;;;3.55;;
31798;SDS011;18374;51.136;3.502;2022-07-29T06:09:41;8.98;;;3.20;;
31798;SDS011;18374;51.136;3.502;2022-07-29T06:12:09;6.25;;;3.28;;
31798;SDS011;18374;51.136;3.502;2022-07-29T06:14:37;4.82;;;3.65;;
31798;SDS011;18374;51.136;3.502;2022-07-29T06:17:05;7.13;;;3.45;;
31798;SDS011;18374;51.136;3.502;2022-07-29T06:19:36;7.15;;;3.42;;
31798;SDS011;18374;51.136;3.502;2022-07-29T06:22:03;6.43;;;3.40;;
31798;SDS011;18374;51.136;3.502;2022-07-29T06:24:35;6.15;;;3.25;;
31798;SDS011;18374;51.136;3.502;2022-07-29T06:27:07;5.15;;;3.30;;
31798;SDS011;18374;51.136;3.502;2022-07-29T06:29:34;6.38;;;3.50;;
31798;SDS011;18374;51.136;3.502;2022-07-29T06:32:02;8.73;;;3.42;;
31798;SDS011;18374;51.136;3.502;2022-07-29T06:34:30;5.97;;;3.35;;
31798;SDS011;18374;51.136;3.502;2022-07-29T06:36:58;6.90;;;3.65;;
31798;SDS011;18374;51.136;3.502;2022-07-29T06:39:26;5.20;;;3.28;;
31798;SDS011;18374;51.136;3.502;2022-07-29T06:41:54;4.95;;;3.22;;
31798;SDS011;18374;51.136;3.502;2022-07-29T06:44:24;5.13;;;3.33;;
31798;SDS011;18374;51.136;3.502;2022-07-29T06:46:51;6.63;;;3.22;;
31798;SDS011;18374;51.136;3.502;2022-07-29T06:49:19;7.32;;;3.83;;
31798;SDS011;18374;51.136;3.502;2022-07-29T06:51:47;3.35;;;2.83;;
31798;SDS011;18374;51.136;3.502;2022-07-29T06:54:15;7.70;;;3.33;;
31798;SDS011;18374;51.136;3.502;2022-07-29T06:56:43;6.88;;;3.25;;
31798;SDS011;18374;51.136;3.502;2022-07-29T06:59:11;5.40;;;3.88;;
31798;SDS011;18374;51.136;3.502;2022-07-29T07:01:41;7.13;;;3.80;;
31798;SDS011;18374;51.136;3.502;2022-07-29T07:04:10;7.57;;;3.67;;
31798;SDS011;18374;51.136;3.502;2022-07-29T07:06:39;7.22;;;3.33;;
31798;SDS011;18374;51.136;3.502;2022-07-29T07:09:07;6.78;;;3.35;;
31798;SDS011;18374;51.136;3.502;2022-07-29T07:11:34;6.63;;;3.33;;
31798;SDS011;18374;51.136;3.502;2022-07-29T07:14:02;4.85;;;3.20;;
31798;SDS011;18374;51.136;3.502;2022-07-29T07:16:30;6.35;;;3.72;;
31798;SDS011;18374;51.136;3.502;2022-07-29T07:18:59;6.50;;;3.35;;
31798;SDS011;18374;51.136;3.502;2022-07-29T07:21:27;6.78;;;3.55;;
31798;SDS011;18374;51.136;3.502;2022-07-29T07:23:57;3.95;;;3.40;;
31798;SDS011;18374;51.136;3.502;2022-07-29T07:26:26;8.50;;;4.00;;
31798;SDS011;18374;51.136;3.502;2022-07-29T07:28:54;12.65;;;3.33;;
31798;SDS011;18374;51.136;3.502;2022-07-29T07:31:24;4.70;;;3.45;;
31798;SDS011;18374;51.136;3.502;2022-07-29T07:33:52;4.85;;;3.47;;
31798;SDS011;18374;51.136;3.502;2022-07-29T07:36:20;6.45;;;3.40;;
31798;SDS011;18374;51.136;3.502;2022-07-29T07:38:52;5.78;;;3.50;;
31798;SDS011;18374;51.136;3.502;2022-07-29T07:41:19;5.95;;;3.78;;
31798;SDS011;18374;51.136;3.502;2022-07-29T07:43:47;5.03;;;3.47;;
31798;SDS011;18374;51.136;3.502;2022-07-29T07:46:15;8.75;;;3.70;;
31798;SDS011;18374;51.136;3.502;2022-07-29T07:48:43;5.30;;;3.70;;
31798;SDS011;18374;51.136;3.502;2022-07-29T07:51:11;8.23;;;3.88;;
31798;SDS011;18374;51.136;3.502;2022-07-29T07:53:38;4.35;;;3.05;;
31798;SDS011;18374;51.136;3.502;2022-07-29T07:56:07;10.57;;;3.70;;
31798;SDS011;18374;51.136;3.502;2022-07-29T07:58:38;5.78;;;3.33;;
31798;SDS011;18374;51.136;3.502;2022-07-29T08:01:06;8.55;;;3.25;;
31798;SDS011;18374;51.136;3.502;2022-07-29T08:03:38;5.18;;;2.92;;
31798;SDS011;18374;51.136;3.502;2022-07-29T08:06:06;7.05;;;3.30;;
31798;SDS011;18374;51.136;3.502;2022-07-29T08:08:33;5.97;;;3.28;;
31798;SDS011;18374;51.136;3.502;2022-07-29T08:11:03;6.18;;;3.63;;
31798;SDS011;18374;51.136;3.502;2022-07-29T08:13:35;5.30;;;2.80;;
31798;SDS011;18374;51.136;3.502;2022-07-29T08:16:07;4.82;;;2.90;;
31798;SDS011;18374;51.136;3.502;2022-07-29T08:18:39;6.18;;;3.40;;
31798;SDS011;18374;51.136;3.502;2022-07-29T08:21:09;6.90;;;3.60;;
31798;SDS011;18374;51.136;3.502;2022-07-29T08:23:41;7.32;;;3.20;;
31798;SDS011;18374;51.136;3.502;2022-07-29T08:26:25;4.05;;;3.20;;
31798;SDS011;18374;51.136;3.502;2022-07-29T08:28:53;4.50;;;2.83;;
31798;SDS011;18374;51.136;3.502;2022-07-29T08:31:21;9.65;;;3.45;;
31798;SDS011;18374;51.136;3.502;2022-07-29T08:33:49;9.80;;;3.17;;
31798;SDS011;18374;51.136;3.502;2022-07-29T08:36:16;6.82;;;2.78;;
31798;SDS011;18374;51.136;3.502;2022-07-29T08:38:44;9.73;;;2.80;;
31798;SDS011;18374;51.136;3.502;2022-07-29T08:41:12;4.90;;;2.45;;
31798;SDS011;18374;51.136;3.502;2022-07-29T08:43:40;4.95;;;2.40;;
31798;SDS011;18374;51.136;3.502;2022-07-29T08:46:08;3.38;;;2.45;;
31798;SDS011;18374;51.136;3.502;2022-07-29T08:48:36;3.17;;;2.58;;
31798;SDS011;18374;51.136;3.502;2022-07-29T08:51:04;2.83;;;2.25;;
31798;SDS011;18374;51.136;3.502;2022-07-29T08:53:36;4.63;;;2.20;;
31798;SDS011;18374;51.136;3.502;2022-07-29T08:56:04;5.60;;;2.90;;
31798;SDS011;18374;51.136;3.502;2022-07-29T08:58:33;3.63;;;2.35;;
31798;SDS011;18374;51.136;3.502;2022-07-29T09:01:04;3.72;;;2.50;;
31798;SDS011;18374;51.136;3.502;2022-07-29T09:03:34;7.88;;;2.55;;
31798;SDS011;18374;51.136;3.502;2022-07-29T09:06:03;5.35;;;2.60;;
31798;SDS011;18374;51.136;3.502;2022-07-29T09:08:32;5.28;;;2.55;;
31798;SDS011;18374;51.136;3.502;2022-07-29T09:11:00;7.80;;;2.55;;
31798;SDS011;18374;51.136;3.502;2022-07-29T09:13:31;4.57;;;2.25;;
31798;SDS011;18374;51.136;3.502;2022-07-29T09:15:59;9.75;;;2.58;;
31798;SDS011;18374;51.136;3.502;2022-07-29T09:18:39;4.03;;;1.95;;
31798;SDS011;18374;51.136;3.502;2022-07-29T09:21:10;4.07;;;2.05;;
31798;SDS011;18374;51.136;3.502;2022-07-29T09:24:06;5.60;;;2.30;;
31798;SDS011;18374;51.136;3.502;2022-07-29T09:26:40;8.15;;;2.50;;
31798;SDS011;18374;51.136;3.502;2022-07-29T09:29:11;6.95;;;2.20;;
31798;SDS011;18374;51.136;3.502;2022-07-29T09:31:45;4.82;;;1.95;;
31798;SDS011;18374;51.136;3.502;2022-07-29T09:34:20;2.58;;;1.80;;
31798;SDS011;18374;51.136;3.502;2022-07-29T09:36:58;5.28;;;2.03;;
31798;SDS011;18374;51.136;3.502;2022-07-29T09:39:33;5.40;;;1.88;;
31798;SDS011;18374;51.136;3.502;2022-07-29T09:42:16;5.15;;;1.70;;
31798;SDS011;18374;51.136;3.502;2022-07-29T09:44:56;3.92;;;2.08;;
31798;SDS011;18374;51.136;3.502;2022-07-29T09:47:25;5.13;;;1.90;;
31798;SDS011;18374;51.136;3.502;2022-07-29T09:50:16;3.17;;;2.03;;
31798;SDS011;18374;51.136;3.502;2022-07-29T09:52:50;4.72;;;1.92;;
31798;SDS011;18374;51.136;3.502;2022-07-29T09:55:25;4.85;;;2.20;;
31798;SDS011;18374;51.136;3.502;2022-07-29T09:57:53;4.38;;;1.95;;
31798;SDS011;18374;51.136;3.502;2022-07-29T10:00:42;3.65;;;1.88;;
31798;SDS011;18374;51.136;3.502;2022-07-29T10:03:11;3.60;;;2.08;;
31798;SDS011;18374;51.136;3.502;2022-07-29T10:05:40;6.00;;;2.38;;
31798;SDS011;18374;51.136;3.502;2022-07-29T10:08:09;12.65;;;2.33;;
31798;SDS011;18374;51.136;3.502;2022-07-29T10:10:40;7.03;;;2.33;;
31798;SDS011;18374;51.136;3.502;2022-07-29T10:13:13;7.85;;;2.03;;
31798;SDS011;18374;51.136;3.502;2022-07-29T10:15:43;4.80;;;2.05;;
31798;SDS011;18374;51.136;3.502;2022-07-29T10:18:13;2.92;;;1.90;;
31798;SDS011;18374;51.136;3.502;2022-07-29T10:20:44;5.32;;;1.85;;
31798;SDS011;18374;51.136;3.502;2022-07-29T10:23:12;3.15;;;1.77;;
31798;SDS011;18374;51.136;3.502;2022-07-29T10:25:40;2.90;;;1.50;;
31798;SDS011;18374;51.136;3.502;2022-07-29T10:28:12;3.25;;;1.90;;
31798;SDS011;18374;51.136;3.502;2022-07-29T10:30:42;4.43;;;1.70;;
31798;SDS011;18374;51.136;3.502;2022-07-29T10:33:27;6.18;;;1.80;;
31798;SDS011;18374;51.136;3.502;2022-07-29T10:42:54;3.22;;;1.90;;
31798;SDS011;18374;51.136;3.502;2022-07-29T10:45:27;5.88;;;2.55;;
31798;SDS011;18374;51.136;3.502;2022-07-29T10:48:03;9.68;;;2.50;;
31798;SDS011;18374;51.136;3.502;2022-07-29T10:53:46;3.45;;;2.00;;
31798;SDS011;18374;51.136;3.502;2022-07-29T10:56:24;4.97;;;2.13;;
31798;SDS011;18374;51.136;3.502;2022-07-29T11:01:48;4.65;;;2.30;;
31798;SDS011;18374;51.136;3.502;2022-07-29T11:07:13;4.18;;;2.15;;
31798;SDS011;18374;51.136;3.502;2022-07-29T11:09:43;4.40;;;1.90;;
31798;SDS011;18374;51.136;3.502;2022-07-29T11:15:05;5.78;;;2.10;;
31798;SDS011;18374;51.136;3.502;2022-07-29T11:20:46;3.28;;;1.70;;
31798;SDS011;18374;51.136;3.502;2022-07-29T11:23:18;3.58;;;1.95;;
31798;SDS011;18374;51.136;3.502;2022-07-29T11:26:34;4.70;;;1.75;;
31798;SDS011;18374;51.136;3.502;2022-07-29T11:31:33;4.13;;;2.00;;
31798;SDS011;18374;51.136;3.502;2022-07-29T11:34:44;3.60;;;1.83;;
31798;SDS011;18374;51.136;3.502;2022-07-29T11:37:14;5.53;;;1.90;;
31798;SDS011;18374;51.136;3.502;2022-07-29T11:48:14;3.00;;;2.17;;
31798;SDS011;18374;51.136;3.502;2022-07-29T11:51:04;6.15;;;2.33;;
31798;SDS011;18374;51.136;3.502;2022-07-29T11:53:39;6.03;;;1.98;;
31798;SDS011;18374;51.136;3.502;2022-07-29T11:56:08;4.97;;;2.00;;
31798;SDS011;18374;51.136;3.502;2022-07-29T11:58:43;3.42;;;2.22;;
31798;SDS011;18374;51.136;3.502;2022-07-29T12:01:18;4.85;;;2.20;;
31798;SDS011;18374;51.136;3.502;2022-07-29T12:03:46;4.72;;;2.13;;
31798;SDS011;18374;51.136;3.502;2022-07-29T12:06:14;4.22;;;2.00;;
31798;SDS011;18374;51.136;3.502;2022-07-29T12:08:44;5.55;;;2.20;;
31798;SDS011;18374;51.136;3.502;2022-07-29T12:11:16;5.78;;;2.00;;
31798;SDS011;18374;51.136;3.502;2022-07-29T12:13:47;6.00;;;1.45;;
31798;SDS011;18374;51.136;3.502;2022-07-29T12:16:20;18.50;;;2.90;;
31798;SDS011;18374;51.136;3.502;2022-07-29T12:18:54;6.15;;;2.10;;
31798;SDS011;18374;51.136;3.502;2022-07-29T12:21:28;3.00;;;1.70;;
31798;SDS011;18374;51.136;3.502;2022-07-29T12:24:23;3.85;;;2.28;;
31798;SDS011;18374;51.136;3.502;2022-07-29T12:26:56;6.03;;;2.40;;
31798;SDS011;18374;51.136;3.502;2022-07-29T12:29:26;3.28;;;1.70;;
31798;SDS011;18374;51.136;3.502;2022-07-29T12:32:00;7.00;;;2.03;;
31798;SDS011;18374;51.136;3.502;2022-07-29T12:34:28;8.82;;;2.22;;
31798;SDS011;18374;51.136;3.502;2022-07-29T12:36:57;5.03;;;2.65;;
31798;SDS011;18374;51.136;3.502;2022-07-29T12:39:25;5.40;;;2.05;;
31798;SDS011;18374;51.136;3.502;2022-07-29T12:41:55;5.53;;;2.20;;
31798;SDS011;18374;51.136;3.502;2022-07-29T12:47:50;5.45;;;2.42;;
31798;SDS011;18374;51.136;3.502;2022-07-29T12:50:19;5.32;;;2.20;;
31798;SDS011;18374;51.136;3.502;2022-07-29T12:52:52;9.52;;;2.45;;
31798;SDS011;18374;51.136;3.502;2022-07-29T13:01:10;5.13;;;2.10;;
31798;SDS011;18374;51.136;3.502;2022-07-29T13:06:30;4.10;;;2.00;;
31798;SDS011;18374;51.136;3.502;2022-07-29T13:09:19;6.47;;;2.00;;
31798;SDS011;18374;51.136;3.502;2022-07-29T13:11:51;7.78;;;1.90;;
31798;SDS011;18374;51.136;3.502;2022-07-29T13:14:33;6.85;;;1.85;;
31798;SDS011;18374;51.136;3.502;2022-07-29T13:19:40;5.45;;;1.92;;
31798;SDS011;18374;51.136;3.502;2022-07-29T13:22:18;2.67;;;1.73;;
31798;SDS011;18374;51.136;3.502;2022-07-29T13:24:52;5.63;;;1.70;;
31798;SDS011;18374;51.136;3.502;2022-07-29T13:27:22;4.95;;;1.75;;
31798;SDS011;18374;51.136;3.502;2022-07-29T13:29:52;7.55;;;2.03;;
31798;SDS011;18374;51.136;3.502;2022-07-29T13:32:23;4.97;;;2.08;;
31798;SDS011;18374;51.136;3.502;2022-07-29T13:34:55;3.60;;;1.60;;
31798;SDS011;18374;51.136;3.502;2022-07-29T13:37:25;4.57;;;1.80;;
31798;SDS011;18374;51.136;3.502;2022-07-29T13:39:53;6.75;;;1.95;;
31798;SDS011;18374;51.136;3.502;2022-07-29T13:42:21;4.50;;;1.63;;
31798;SDS011;18374;51.136;3.502;2022-07-29T13:44:50;7.15;;;2.20;;
31798;SDS011;18374;51.136;3.502;2022-07-29T13:47:19;3.35;;;2.05;;
31798;SDS011;18374;51.136;3.502;2022-07-29T13:49:59;4.03;;;2.10;;
31798;SDS011;18374;51.136;3.502;2022-07-29T13:52:28;3.60;;;2.03;;
31798;SDS011;18374;51.136;3.502;2022-07-29T13:54:56;4.88;;;1.92;;
31798;SDS011;18374;51.136;3.502;2022-07-29T13:57:24;3.88;;;1.63;;
31798;SDS011;18374;51.136;3.502;2022-07-29T13:59:52;4.63;;;2.20;;
31798;SDS011;18374;51.136;3.502;2022-07-29T14:02:20;5.93;;;2.15;;
31798;SDS011;18374;51.136;3.502;2022-07-29T14:04:52;2.40;;;1.80;;
31798;SDS011;18374;51.136;3.502;2022-07-29T14:07:21;6.07;;;2.00;;
31798;SDS011;18374;51.136;3.502;2022-07-29T14:09:50;3.58;;;1.42;;
31798;SDS011;18374;51.136;3.502;2022-07-29T14:12:18;3.13;;;1.88;;
31798;SDS011;18374;51.136;3.502;2022-07-29T14:14:46;6.75;;;2.03;;
31798;SDS011;18374;51.136;3.502;2022-07-29T14:17:14;3.20;;;1.95;;
31798;SDS011;18374;51.136;3.502;2022-07-29T14:19:42;9.75;;;2.22;;
31798;SDS011;18374;51.136;3.502;2022-07-29T14:22:10;6.65;;;1.80;;
31798;SDS011;18374;51.136;3.502;2022-07-29T14:24:38;4.38;;;1.73;;
31798;SDS011;18374;51.136;3.502;2022-07-29T14:27:07;3.08;;;2.03;;
31798;SDS011;18374;51.136;3.502;2022-07-29T14:29:35;7.45;;;1.92;;
31798;SDS011;18374;51.136;3.502;2022-07-29T14:32:05;3.80;;;1.73;;
31798;SDS011;18374;51.136;3.502;2022-07-29T14:34:34;3.95;;;2.08;;
31798;SDS011;18374;51.136;3.502;2022-07-29T14:37:04;4.82;;;2.30;;
31798;SDS011;18374;51.136;3.502;2022-07-29T14:39:33;8.68;;;2.08;;
31798;SDS011;18374;51.136;3.502;2022-07-29T14:42:09;8.63;;;2.40;;
31798;SDS011;18374;51.136;3.502;2022-07-29T14:44:39;4.63;;;2.28;;
31798;SDS011;18374;51.136;3.502;2022-07-29T14:47:08;5.22;;;1.92;;
31798;SDS011;18374;51.136;3.502;2022-07-29T14:49:36;4.18;;;2.10;;
31798;SDS011;18374;51.136;3.502;2022-07-29T14:52:04;4.60;;;2.13;;
31798;SDS011;18374;51.136;3.502;2022-07-29T14:54:31;4.35;;;2.55;;
31798;SDS011;18374;51.136;3.502;2022-07-29T14:56:59;4.93;;;2.20;;
31798;SDS011;18374;51.136;3.502;2022-07-29T14:59:27;10.55;;;2.17;;
31798;SDS011;18374;51.136;3.502;2022-07-29T15:01:55;3.78;;;2.40;;
31798;SDS011;18374;51.136;3.502;2022-07-29T15:04:23;5.57;;;2.42;;
31798;SDS011;18374;51.136;3.502;2022-07-29T15:06:51;4.68;;;2.00;;
31798;SDS011;18374;51.136;3.502;2022-07-29T15:09:18;4.05;;;1.50;;
31798;SDS011;18374;51.136;3.502;2022-07-29T15:11:46;5.95;;;2.13;;
31798;SDS011;18374;51.136;3.502;2022-07-29T15:14:14;6.50;;;1.90;;
31798;SDS011;18374;51.136;3.502;2022-07-29T15:16:41;2.25;;;1.75;;
31798;SDS011;18374;51.136;3.502;2022-07-29T15:19:14;3.92;;;1.85;;
31798;SDS011;18374;51.136;3.502;2022-07-29T15:21:42;9.45;;;2.70;;
31798;SDS011;18374;51.136;3.502;2022-07-29T15:24:15;4.68;;;2.20;;
31798;SDS011;18374;51.136;3.502;2022-07-29T15:26:44;4.60;;;1.98;;
31798;SDS011;18374;51.136;3.502;2022-07-29T15:29:12;7.30;;;1.83;;
31798;SDS011;18374;51.136;3.502;2022-07-29T15:31:40;4.72;;;1.85;;
31798;SDS011;18374;51.136;3.502;2022-07-29T15:34:09;5.80;;;1.83;;
31798;SDS011;18374;51.136;3.502;2022-07-29T15:36:36;6.25;;;1.90;;
31798;SDS011;18374;51.136;3.502;2022-07-29T15:39:20;6.47;;;1.80;;
31798;SDS011;18374;51.136;3.502;2022-07-29T15:41:49;2.97;;;1.60;;
31798;SDS011;18374;51.136;3.502;2022-07-29T15:44:18;8.05;;;1.95;;
31798;SDS011;18374;51.136;3.502;2022-07-29T15:46:47;4.63;;;1.77;;
31798;SDS011;18374;51.136;3.502;2022-07-29T15:52:16;3.53;;;1.55;;
31798;SDS011;18374;51.136;3.502;2022-07-29T15:54:55;3.72;;;2.10;;
31798;SDS011;18374;51.136;3.502;2022-07-29T15:57:23;6.63;;;2.67;;
31798;SDS011;18374;51.136;3.502;2022-07-29T15:59:51;4.53;;;1.70;;
31798;SDS011;18374;51.136;3.502;2022-07-29T16:02:19;4.72;;;1.92;;
31798;SDS011;18374;51.136;3.502;2022-07-29T16:04:47;6.43;;;2.20;;
31798;SDS011;18374;51.136;3.502;2022-07-29T16:07:15;4.40;;;1.98;;
31798;SDS011;18374;51.136;3.502;2022-07-29T16:09:43;5.07;;;1.80;;
31798;SDS011;18374;51.136;3.502;2022-07-29T16:12:18;6.93;;;1.95;;
31798;SDS011;18374;51.136;3.502;2022-07-29T16:14:46;7.72;;;2.00;;